Time;durP1;ratioP1;P1;durP2;ratioP2;P2;SDS_P1;SDS_P2;PMS_P1;PMS_P2;Temp;Humidity;BMP_temperature;BMP_pressure;BME280_temperature;BME280_humidity;BME280_pressure;Samples;Min_cycle;Max_cycle;Signal;HPM_P1;HPM_P2
2022/01/09 00:00:54;;;;;;;13.23;3.10;;;;;;;18.28;55.07;98132.53;5048774;28;20250;-62
2022/01/09 00:03:20;;;;;;;13.80;2.47;;;;;;;18.27;55.17;98138.69;5049038;28;20411;-62
2022/01/09 00:05:45;;;;;;;11.27;2.70;;;;;;;18.25;54.96;98132.56;5048885;28;20195;-61
2022/01/09 00:08:10;;;;;;;11.50;2.73;;;;;;;18.24;55.18;98123.22;5030736;28;20183;-62
2022/01/09 00:10:36;;;;;;;11.80;2.63;;;;;;;18.27;54.82;98128.03;5049529;28;20179;-62
2022/01/09 00:13:02;;;;;;;11.93;3.07;;;;;;;18.24;55.07;98110.97;5048953;28;20245;-62
2022/01/09 00:15:27;;;;;;;9.47;2.57;;;;;;;18.24;55.00;98108.94;5049139;28;20190;-62
2022/01/09 00:17:53;;;;;;;11.53;2.40;;;;;;;18.24;55.26;98111.78;5029973;28;20208;-62
2022/01/09 00:20:18;;;;;;;11.63;2.50;;;;;;;18.24;55.06;98100.38;5048822;28;20184;-62
2022/01/09 00:25:09;;;;;;;6.60;2.33;;;;;;;18.26;54.70;98094.22;5048651;28;20183;-62
2022/01/09 00:27:36;;;;;;;13.23;2.87;;;;;;;18.25;54.89;98095.44;5045648;28;20180;-62
2022/01/09 00:30:06;;;;;;;8.33;2.33;;;;;;;18.26;54.91;98100.72;5028645;28;20184;-62
2022/01/09 00:32:31;;;;;;;7.20;2.27;;;;;;;18.22;55.06;98102.03;5042631;28;20422;-62
2022/01/09 00:34:56;;;;;;;11.07;2.80;;;;;;;18.28;55.04;98103.97;5048719;28;20475;-62
2022/01/09 00:37:22;;;;;;;8.33;2.27;;;;;;;18.26;54.95;98095.00;5048174;28;20212;-62
2022/01/09 00:39:47;;;;;;;10.13;3.47;;;;;;;18.24;55.13;98108.09;5033001;28;20184;-62
2022/01/09 00:42:13;;;;;;;4.53;2.30;;;;;;;18.28;55.07;98101.13;5029118;28;20180;-62
2022/01/09 00:44:38;;;;;;;10.20;3.30;;;;;;;18.29;54.67;98099.06;5031150;28;20176;-61
2022/01/09 00:47:04;;;;;;;9.50;2.83;;;;;;;18.23;55.22;98098.75;5037247;28;20184;-61
2022/01/09 00:49:29;;;;;;;11.30;2.47;;;;;;;18.22;54.79;98091.41;5028422;28;20177;-62
2022/01/09 00:51:55;;;;;;;8.17;2.60;;;;;;;18.26;55.14;98088.50;5030886;28;20223;-62
2022/01/09 00:54:20;;;;;;;9.30;2.30;;;;;;;18.28;55.02;98094.59;5030765;28;20176;-62
2022/01/09 00:56:45;;;;;;;9.60;3.10;;;;;;;18.27;54.89;98090.13;5028189;28;20535;-62
2022/01/09 00:59:11;;;;;;;11.63;2.10;;;;;;;18.26;55.08;98085.66;5030422;28;20654;-62
2022/01/09 01:01:36;;;;;;;7.13;2.10;;;;;;;18.29;54.70;98094.16;5028688;28;20164;-62
2022/01/09 01:04:02;;;;;;;8.23;2.27;;;;;;;18.26;54.93;98100.72;5028046;28;20537;-62
2022/01/09 01:06:27;;;;;;;6.77;2.20;;;;;;;18.28;55.06;98103.16;5032176;28;20620;-62
2022/01/09 01:08:52;;;;;;;4.00;2.27;;;;;;;18.24;55.02;98097.50;5030070;28;20253;-61
2022/01/09 01:11:18;;;;;;;6.67;2.30;;;;;;;18.28;55.08;98097.44;5048220;28;20207;-61
2022/01/09 01:13:44;;;;;;;9.57;2.40;;;;;;;18.28;54.94;98098.25;5047895;28;20183;-62
2022/01/09 01:16:09;;;;;;;8.23;1.93;;;;;;;18.31;54.72;98100.22;5048336;28;20422;-62
2022/01/09 01:18:36;;;;;;;11.00;2.00;;;;;;;18.28;54.67;98098.25;5048302;28;20666;-62
2022/01/09 01:21:01;;;;;;;6.00;2.10;;;;;;;18.27;54.85;98105.19;5048634;28;20171;-62
2022/01/09 01:23:27;;;;;;;12.53;2.53;;;;;;;18.28;54.75;98101.13;5048021;28;20777;-62
2022/01/09 01:25:53;;;;;;;5.80;2.00;;;;;;;18.29;54.84;98104.75;5048067;28;20588;-62
2022/01/09 01:28:18;;;;;;;7.60;2.20;;;;;;;18.28;54.75;98108.88;5047335;28;20191;-62
2022/01/09 01:30:44;;;;;;;6.90;2.40;;;;;;;18.24;55.03;98110.97;5048123;28;20180;-62
2022/01/09 01:33:09;;;;;;;8.70;2.33;;;;;;;18.25;55.17;98121.16;5035221;28;20227;-62
2022/01/09 01:35:35;;;;;;;6.67;1.93;;;;;;;18.21;55.25;98124.06;5028358;28;20172;-62
2022/01/09 01:38:00;;;;;;;10.57;2.43;;;;;;;18.24;55.02;98119.53;5044131;28;20671;-62
2022/01/09 01:40:26;;;;;;;6.60;2.03;;;;;;;18.23;55.11;98110.19;5048320;28;20238;-63
2022/01/09 01:42:51;;;;;;;5.60;1.73;;;;;;;18.26;54.92;98117.88;5048355;28;20194;-62
2022/01/09 01:45:16;;;;;;;7.93;2.00;;;;;;;18.23;55.01;98115.06;5051629;28;20583;-62
2022/01/09 01:47:42;;;;;;;7.87;1.77;;;;;;;18.23;55.29;98113.03;5050230;28;20172;-63
2022/01/09 01:50:09;;;;;;;5.97;2.00;;;;;;;18.21;54.89;98120.41;5033158;28;20180;-62
2022/01/09 01:52:40;;;;;;;8.13;2.13;;;;;;;18.20;55.19;98119.59;5052155;28;20653;-62
2022/01/09 01:55:08;;;;;;;5.40;2.07;;;;;;;18.22;55.01;98119.16;5051570;28;20398;-62
2022/01/09 01:57:33;;;;;;;5.23;1.70;;;;;;;18.18;55.10;98124.94;5051423;28;20458;-62
2022/01/09 01:59:59;;;;;;;6.57;1.60;;;;;;;18.21;55.30;98126.91;5028510;28;20486;-61
2022/01/09 02:02:25;;;;;;;9.07;2.07;;;;;;;18.22;55.06;98130.59;5020877;28;20662;-61
2022/01/09 02:04:51;;;;;;;6.10;1.70;;;;;;;18.22;55.24;98137.09;5031172;28;20186;-61
2022/01/09 02:07:17;;;;;;;5.70;1.80;;;;;;;18.16;55.02;98135.97;5030789;28;20451;-61
2022/01/09 02:09:43;;;;;;;10.93;2.10;;;;;;;18.18;55.35;98133.50;5031845;28;20199;-61
2022/01/09 02:12:09;;;;;;;7.27;1.63;;;;;;;18.20;54.93;98136.72;5031440;28;20551;-61
2022/01/09 02:14:37;;;;;;;6.47;1.70;;;;;;;18.17;55.21;98137.56;5031542;28;20472;-61
2022/01/09 02:17:04;;;;;;;5.30;2.03;;;;;;;18.18;55.15;98142.06;5029351;28;20199;-61
2022/01/09 02:19:29;;;;;;;5.80;2.00;;;;;;;18.16;55.09;98143.75;5031554;28;20429;-61
2022/01/09 02:21:56;;;;;;;6.27;2.00;;;;;;;18.16;55.04;98147.38;5029762;28;20415;-62
2022/01/09 02:24:23;;;;;;;7.30;1.80;;;;;;;18.17;54.94;98154.72;5031217;28;20192;-62
2022/01/09 02:26:49;;;;;;;9.27;1.73;;;;;;;18.20;55.20;98151.00;5021720;28;20415;-62
2022/01/09 02:29:14;;;;;;;4.90;1.93;;;;;;;18.17;55.02;98163.28;5011220;28;20458;-62
2022/01/09 02:31:39;;;;;;;5.73;1.80;;;;;;;18.15;55.25;98160.06;5013399;28;20185;-61
2022/01/09 02:34:05;;;;;;;3.30;1.53;;;;;;;18.14;55.29;98160.47;5011749;28;20181;-61
2022/01/09 02:36:31;;;;;;;4.30;1.70;;;;;;;18.17;55.32;98168.19;5017224;28;20698;-62
2022/01/09 02:38:56;;;;;;;4.73;1.67;;;;;;;18.14;55.27;98172.72;5016818;28;20262;-62
2022/01/09 02:41:21;;;;;;;3.10;1.80;;;;;;;18.18;55.42;98182.06;5011404;28;20177;-62
2022/01/09 02:43:47;;;;;;;4.90;1.30;;;;;;;18.18;54.91;98179.19;5011508;28;20185;-62
2022/01/09 02:46:27;;;;;;;5.80;1.93;;;;;;;18.14;55.10;98195.56;5013206;28;20181;-62
2022/01/09 02:48:52;;;;;;;6.30;1.73;;;;;;;18.22;55.07;98199.94;5010675;28;20695;-62
2022/01/09 02:51:18;;;;;;;4.43;1.80;;;;;;;18.20;55.18;98208.13;5011001;28;20424;-62
2022/01/09 02:53:47;;;;;;;7.33;2.30;;;;;;;18.20;55.10;98210.97;5010529;28;20181;-62
2022/01/09 02:56:12;;;;;;;7.50;1.77;;;;;;;18.21;54.99;98206.09;5012606;28;20180;-62
2022/01/09 02:58:38;;;;;;;7.27;2.10;;;;;;;18.22;54.79;98219.91;5010504;28;20460;-62
2022/01/09 03:01:05;;;;;;;5.23;1.93;;;;;;;18.20;55.12;98230.16;5030805;28;20224;-62
2022/01/09 03:03:30;;;;;;;7.00;1.93;;;;;;;18.23;54.94;98233.00;5030468;28;20203;-62
2022/01/09 03:05:56;;;;;;;5.43;2.00;;;;;;;18.22;54.87;98234.19;5033089;28;20451;-62
2022/01/09 03:08:21;;;;;;;3.33;1.80;;;;;;;18.16;54.98;98238.78;5049639;28;20206;-62
2022/01/09 03:10:46;;;;;;;5.70;1.50;;;;;;;18.18;55.00;98242.03;5032097;28;20172;-62
2022/01/09 03:13:12;;;;;;;5.00;1.50;;;;;;;18.17;55.49;98251.81;5050083;28;20179;-62
2022/01/09 03:15:37;;;;;;;8.90;2.20;;;;;;;18.18;54.99;98256.31;5050323;28;20171;-62
2022/01/09 03:18:03;;;;;;;5.80;2.00;;;;;;;18.19;54.74;98271.38;5005520;28;20601;-63
2022/01/09 03:20:28;;;;;;;5.03;1.70;;;;;;;18.20;55.12;98290.94;4953420;28;20183;-62
2022/01/09 03:22:55;;;;;;;4.63;1.50;;;;;;;18.18;55.16;98293.44;4983110;28;20259;-62
2022/01/09 03:25:24;;;;;;;4.33;1.70;;;;;;;18.19;54.98;98320.75;5050021;28;20187;-62
2022/01/09 03:27:50;;;;;;;9.70;2.20;;;;;;;18.16;55.54;98347.28;5049529;28;20398;-62
2022/01/09 03:30:15;;;;;;;4.00;1.30;;;;;;;18.24;54.97;98365.97;5049831;28;20773;-62
2022/01/09 03:32:41;;;;;;;3.83;1.40;;;;;;;18.19;55.15;98386.44;5040769;28;20176;-62
2022/01/09 03:35:14;;;;;;;4.67;1.80;;;;;;;18.16;55.12;98387.28;5029614;28;20647;-62
2022/01/09 03:37:40;;;;;;;4.80;1.60;;;;;;;18.24;54.79;98396.59;5043366;28;20207;-62
2022/01/09 03:40:07;;;;;;;6.00;1.20;;;;;;;18.18;55.34;98413.38;5050083;28;20442;-62
2022/01/09 03:42:33;;;;;;;5.43;1.50;;;;;;;18.21;54.84;98415.38;5049816;28;20415;-62
2022/01/09 03:44:58;;;;;;;3.67;1.40;;;;;;;18.21;54.98;98423.16;5049615;28;20752;-62
2022/01/09 03:47:23;;;;;;;4.30;1.40;;;;;;;18.16;55.29;98435.03;5048918;28;20654;-62
2022/01/09 03:49:50;;;;;;;4.13;1.80;;;;;;;18.09;55.27;98441.63;5049498;28;20714;-62
2022/01/09 03:52:16;;;;;;;6.73;1.47;;;;;;;18.19;55.02;98452.13;5049557;28;20183;-62
2022/01/09 03:54:41;;;;;;;2.40;1.20;;;;;;;18.17;55.64;98468.06;5049064;28;20447;-62
2022/01/09 03:57:07;;;;;;;3.40;1.53;;;;;;;18.16;55.29;98477.88;5048942;28;20200;-62
2022/01/09 03:59:32;;;;;;;5.43;1.30;;;;;;;18.16;55.05;98495.00;5049163;28;20224;-62
2022/01/09 04:01:58;;;;;;;4.57;1.70;;;;;;;18.17;55.06;98511.69;5049253;28;20171;-62
2022/01/09 04:04:23;;;;;;;4.87;1.13;;;;;;;18.15;55.31;98521.94;5031697;28;20233;-62
2022/01/09 04:06:50;;;;;;;5.20;1.80;;;;;;;18.20;54.83;98518.63;5048200;28;20817;-62
2022/01/09 04:09:21;;;;;;;2.80;1.17;;;;;;;18.19;55.35;98514.97;5048885;28;20708;-62
2022/01/09 04:11:47;;;;;;;6.43;2.07;;;;;;;18.14;55.15;98535.41;5048767;28;20452;-62
2022/01/09 04:14:13;;;;;;;12.73;1.60;;;;;;;18.15;55.26;98551.31;5031336;28;20415;-62
2022/01/09 04:16:39;;;;;;;2.40;1.27;;;;;;;18.17;55.23;98560.25;5048542;28;20422;-62
2022/01/09 04:19:04;;;;;;;3.37;1.20;;;;;;;18.15;55.00;98568.44;5030724;28;21276;-62
2022/01/09 04:21:29;;;;;;;5.30;1.30;;;;;;;18.14;55.20;98572.53;5049051;28;20183;-62
2022/01/09 04:23:55;;;;;;;4.70;1.97;;;;;;;18.13;55.54;98582.34;5041594;28;20176;-62
2022/01/09 04:26:21;;;;;;;6.30;1.50;;;;;;;18.15;55.19;98579.88;5028244;28;20199;-62
2022/01/09 04:28:47;;;;;;;5.20;1.50;;;;;;;18.15;54.99;98596.19;5027355;28;20176;-62
2022/01/09 04:31:12;;;;;;;3.30;1.40;;;;;;;18.24;54.70;98605.91;5027669;28;20426;-62
2022/01/09 04:33:39;;;;;;;5.30;1.70;;;;;;;18.15;55.16;98614.13;5028186;28;20176;-62
2022/01/09 04:36:05;;;;;;;4.13;1.67;;;;;;;18.18;55.24;98619.03;5029910;28;20180;-62
2022/01/09 04:38:30;;;;;;;5.10;1.60;;;;;;;18.16;54.88;98632.91;5041121;28;20447;-63
2022/01/09 04:40:56;;;;;;;1.97;1.00;;;;;;;18.19;55.13;98631.25;5028842;28;20542;-62
2022/01/09 04:43:22;;;;;;;5.17;1.20;;;;;;;18.19;54.98;98646.34;5029098;28;20647;-62
2022/01/09 04:45:47;;;;;;;2.70;1.10;;;;;;;18.21;55.04;98657.38;5029607;28;20187;-62
2022/01/09 04:48:14;;;;;;;3.20;1.30;;;;;;;18.23;54.83;98661.44;5030988;28;20230;-62
2022/01/09 04:50:43;;;;;;;3.77;1.43;;;;;;;18.24;55.10;98667.94;5028797;28;20187;-62
2022/01/09 04:53:09;;;;;;;4.03;1.40;;;;;;;18.23;55.04;98678.56;5028386;28;20415;-62
2022/01/09 04:55:36;;;;;;;4.20;1.50;;;;;;;18.24;54.88;98683.03;5028218;28;20613;-62
2022/01/09 04:58:02;;;;;;;5.57;1.20;;;;;;;18.22;54.87;98687.53;5010645;28;20549;-62
2022/01/09 05:00:28;;;;;;;5.67;1.33;;;;;;;18.20;54.87;98702.25;5030878;28;20479;-62
2022/01/09 05:02:53;;;;;;;3.43;1.40;;;;;;;18.21;55.00;98698.16;5028682;28;20552;-62
2022/01/09 05:05:19;;;;;;;4.40;1.20;;;;;;;18.14;55.36;98701.06;5031428;28;20183;-62
2022/01/09 05:07:44;;;;;;;2.60;1.20;;;;;;;18.19;54.90;98705.50;5040922;28;20207;-62
2022/01/09 05:10:10;;;;;;;3.80;1.27;;;;;;;18.17;54.83;98714.50;5030947;28;20709;-62
2022/01/09 05:12:36;;;;;;;4.97;1.27;;;;;;;18.17;55.07;98720.19;5028892;28;20550;-62
2022/01/09 05:15:05;;;;;;;2.70;1.23;;;;;;;18.20;55.09;98718.56;5028387;28;20670;-62
2022/01/09 05:17:30;;;;;;;5.43;1.40;;;;;;;18.16;55.17;98724.28;5031646;28;20192;-62
2022/01/09 05:19:57;;;;;;;2.90;1.20;;;;;;;18.18;55.06;98736.13;5034136;28;20762;-62
2022/01/09 05:22:27;;;;;;;3.50;1.17;;;;;;;18.22;54.75;98742.63;5051994;28;20234;-62
2022/01/09 05:24:54;;;;;;;2.83;1.50;;;;;;;18.18;54.74;98746.72;5052408;28;20418;-62
2022/01/09 05:27:20;;;;;;;3.93;1.20;;;;;;;18.18;54.88;98750.41;5051899;28;20910;-62
2022/01/09 05:29:45;;;;;;;5.10;1.30;;;;;;;18.18;55.06;98756.13;5052094;28;20483;-63
2022/01/09 05:32:10;;;;;;;6.30;1.63;;;;;;;18.17;55.34;98765.91;5047057;28;20184;-63
2022/01/09 05:34:36;;;;;;;2.80;1.00;;;;;;;18.22;54.54;98770.38;5032387;28;20238;-62
2022/01/09 05:37:01;;;;;;;3.10;1.00;;;;;;;18.17;55.04;98773.66;5039429;28;20183;-62
2022/01/09 05:39:27;;;;;;;3.53;1.20;;;;;;;18.19;54.70;98774.06;5052341;28;20576;-62
2022/01/09 05:41:52;;;;;;;5.30;1.20;;;;;;;18.16;55.19;98792.03;5052258;28;20178;-62
2022/01/09 05:44:19;;;;;;;3.60;1.63;;;;;;;18.20;54.66;98785.06;5051471;28;20175;-62
2022/01/09 05:46:44;;;;;;;5.23;1.03;;;;;;;18.17;54.84;98782.25;5051883;28;20186;-62
2022/01/09 05:49:10;;;;;;;3.80;1.00;;;;;;;18.18;54.73;98786.72;5051535;28;20926;-62
2022/01/09 05:51:35;;;;;;;4.40;1.60;;;;;;;18.16;55.26;98798.56;5051612;28;20184;-62
2022/01/09 05:54:02;;;;;;;2.50;1.13;;;;;;;18.18;54.90;98807.53;5051898;28;20175;-62
2022/01/09 05:56:27;;;;;;;3.23;1.07;;;;;;;18.19;55.10;98814.03;5051405;28;20160;-62
2022/01/09 05:58:53;;;;;;;3.10;1.47;;;;;;;18.18;55.00;98816.09;5051104;28;20833;-62
2022/01/09 06:01:18;;;;;;;2.70;1.07;;;;;;;18.21;54.83;98828.75;5051655;28;20237;-63
2022/01/09 06:03:43;;;;;;;2.70;1.20;;;;;;;18.22;54.89;98825.44;5033397;28;20647;-63
2022/01/09 06:06:09;;;;;;;3.53;0.97;;;;;;;18.16;54.94;98832.03;5051168;28;20214;-63
2022/01/09 06:08:34;;;;;;;3.23;1.40;;;;;;;18.18;54.65;98836.09;5050987;28;20643;-62
2022/01/09 06:11:00;;;;;;;3.10;1.50;;;;;;;18.18;55.11;98850.38;5051462;28;20168;-62
2022/01/09 06:13:25;;;;;;;3.17;1.13;;;;;;;18.21;54.82;98851.59;5050834;28;20754;-62
2022/01/09 06:15:51;;;;;;;3.07;1.10;;;;;;;18.25;54.58;98863.81;5051284;28;20190;-62
2022/01/09 06:18:20;;;;;;;2.13;0.90;;;;;;;18.22;54.63;98858.94;5022286;28;20196;-62
2022/01/09 06:20:46;;;;;;;4.70;1.23;;;;;;;18.26;54.71;98876.88;5013387;28;20259;-62
2022/01/09 06:23:11;;;;;;;3.77;1.20;;;;;;;18.28;54.99;98883.81;5031389;28;20935;-62
2022/01/09 06:25:37;;;;;;;3.17;1.13;;;;;;;18.25;54.56;98875.22;5031207;28;20407;-62
2022/01/09 06:28:02;;;;;;;2.20;1.10;;;;;;;18.21;54.61;98880.97;5014799;28;20640;-62
2022/01/09 06:30:28;;;;;;;3.53;1.37;;;;;;;18.27;54.62;98901.34;5048806;28;20181;-62
2022/01/09 06:32:53;;;;;;;2.07;1.03;;;;;;;18.29;54.42;98911.16;5030762;28;20169;-62
2022/01/09 06:35:19;;;;;;;3.37;1.27;;;;;;;18.26;54.57;98917.66;5031238;28;20168;-62
2022/01/09 06:37:45;;;;;;;3.87;1.00;;;;;;;18.24;54.90;98925.03;5034065;28;20192;-63
2022/01/09 06:40:11;;;;;;;3.20;1.40;;;;;;;18.29;54.64;98927.47;5033408;28;20694;-63
2022/01/09 06:42:38;;;;;;;3.10;1.40;;;;;;;18.23;54.57;98946.25;5032713;28;20435;-62
2022/01/09 06:45:04;;;;;;;2.50;0.90;;;;;;;18.30;54.82;98954.78;5030546;28;20713;-62
2022/01/09 06:47:29;;;;;;;2.37;0.93;;;;;;;18.23;54.91;98963.41;5030482;28;20426;-62
2022/01/09 06:49:55;;;;;;;4.50;1.03;;;;;;;18.21;54.91;98968.72;5032868;28;20926;-62
2022/01/09 06:52:20;;;;;;;2.23;0.83;;;;;;;18.21;54.79;98972.38;5030792;28;20172;-62
2022/01/09 06:54:45;;;;;;;3.13;1.33;;;;;;;18.30;54.60;98975.63;5012529;28;20552;-62
2022/01/09 06:57:11;;;;;;;3.23;1.20;;;;;;;18.24;54.65;98970.72;5032485;28;20200;-63
2022/01/09 06:59:36;;;;;;;2.77;1.23;;;;;;;18.26;54.84;98977.66;5030808;28;20221;-63
2022/01/09 07:02:02;;;;;;;3.77;1.10;;;;;;;18.26;54.61;98982.59;5033155;28;20176;-63
2022/01/09 07:04:27;;;;;;;3.67;1.27;;;;;;;18.23;55.06;98986.25;5032292;28;20272;-63
2022/01/09 07:06:53;;;;;;;2.70;1.30;;;;;;;18.26;54.51;98999.72;5037310;28;20234;-63
2022/01/09 07:09:18;;;;;;;3.30;1.30;;;;;;;18.27;54.50;98996.44;5049808;28;20184;-62
2022/01/09 07:11:43;;;;;;;2.37;1.07;;;;;;;18.20;54.92;99010.72;5050479;28;20544;-62
2022/01/09 07:14:09;;;;;;;2.23;0.90;;;;;;;18.18;55.08;99010.34;5050401;28;20172;-62
2022/01/09 07:16:34;;;;;;;3.93;1.27;;;;;;;18.23;54.79;99018.50;5050464;28;20788;-62
2022/01/09 07:19:00;;;;;;;4.53;1.20;;;;;;;18.24;54.76;99016.44;5049398;28;20203;-62
2022/01/09 07:21:25;;;;;;;2.20;0.97;;;;;;;18.21;54.90;99023.00;5050196;28;20217;-62
2022/01/09 07:23:51;;;;;;;6.30;1.53;;;;;;;18.24;54.72;99022.97;5050054;28;20180;-62
2022/01/09 07:26:16;;;;;;;2.50;1.30;;;;;;;18.23;54.68;99021.34;5050013;28;20171;-62
2022/01/09 07:28:41;;;;;;;3.20;1.20;;;;;;;18.21;54.91;99018.06;5030521;28;20172;-62
2022/01/09 07:31:07;;;;;;;2.27;0.90;;;;;;;18.22;54.83;99022.56;5050057;28;20163;-62
2022/01/09 07:33:32;;;;;;;1.97;0.77;;;;;;;18.24;54.58;99020.13;5033975;28;20238;-63
2022/01/09 07:35:58;;;;;;;2.00;0.80;;;;;;;18.24;54.77;99022.97;5029428;28;20172;-62
2022/01/09 07:38:23;;;;;;;2.00;1.00;;;;;;;18.27;54.42;99021.34;5049143;28;20215;-62
2022/01/09 07:40:50;;;;;;;2.00;0.80;;;;;;;18.23;54.47;99027.06;5048158;28;20245;-62
2022/01/09 07:43:15;;;;;;;3.63;2.00;;;;;;;18.24;54.82;99028.69;5049846;28;20180;-62
2022/01/09 07:45:41;;;;;;;1.77;0.73;;;;;;;18.21;54.87;99031.56;5049641;28;20437;-62
2022/01/09 07:48:06;;;;;;;2.50;1.10;;;;;;;18.23;54.80;99034.81;5049561;28;20994;-62
2022/01/09 07:50:32;;;;;;;3.00;1.00;;;;;;;18.24;54.35;99033.56;5048833;28;20180;-62
2022/01/09 07:52:57;;;;;;;2.90;0.93;;;;;;;18.23;54.82;99020.53;5049536;28;20245;-62
2022/01/09 07:55:23;;;;;;;2.37;0.80;;;;;;;18.21;54.63;99035.22;5031395;28;20709;-62
2022/01/09 07:57:49;;;;;;;4.53;1.00;;;;;;;18.17;54.82;99031.53;5048590;28;20196;-63
2022/01/09 08:00:15;;;;;;;2.93;1.10;;;;;;;18.20;54.78;99027.88;5049109;28;20600;-63
2022/01/09 08:02:41;;;;;;;2.63;1.10;;;;;;;18.29;54.30;99036.03;5049232;28;20486;-63
2022/01/09 08:05:07;;;;;;;1.60;0.70;;;;;;;18.31;54.36;99040.09;5049433;28;20191;-62
2022/01/09 08:07:32;;;;;;;3.17;1.23;;;;;;;18.29;54.39;99038.88;5014486;28;20477;-62
2022/01/09 08:09:58;;;;;;;2.17;0.90;;;;;;;18.26;54.66;99049.09;5048744;28;20640;-63
2022/01/09 08:12:23;;;;;;;2.40;1.00;;;;;;;18.28;54.76;99042.97;5049118;28;20164;-63
2022/01/09 08:14:48;;;;;;;2.60;1.20;;;;;;;18.22;54.81;99048.25;5049137;28;20624;-62
2022/01/09 08:17:14;;;;;;;3.30;1.20;;;;;;;18.30;54.51;99043.34;5048253;28;20261;-62
2022/01/09 08:19:40;;;;;;;1.80;0.90;;;;;;;18.30;54.48;99049.91;5048753;28;20179;-62
2022/01/09 08:22:06;;;;;;;2.17;1.00;;;;;;;18.30;54.38;99041.34;5049368;28;20218;-62
2022/01/09 08:24:32;;;;;;;2.37;0.90;;;;;;;18.30;54.74;99037.66;5030841;28;20172;-62
2022/01/09 08:26:57;;;;;;;2.93;0.80;;;;;;;18.33;54.34;99043.41;5030653;28;20480;-62
2022/01/09 08:29:23;;;;;;;3.50;1.03;;;;;;;18.32;54.34;99041.75;5047877;28;20794;-62
2022/01/09 08:31:48;;;;;;;1.53;0.80;;;;;;;18.35;54.50;99058.09;5045490;28;20669;-62
2022/01/09 08:34:14;;;;;;;1.80;0.80;;;;;;;18.30;54.35;99049.91;5028082;28;20184;-62
2022/01/09 08:36:39;;;;;;;2.33;0.90;;;;;;;18.35;54.29;99058.09;5018808;28;20198;-62
2022/01/09 08:39:05;;;;;;;2.13;0.80;;;;;;;18.28;54.31;99063.78;5038358;28;20203;-62
2022/01/09 08:41:31;;;;;;;2.50;1.00;;;;;;;18.29;54.60;99056.84;5029160;28;20188;-62
2022/01/09 08:43:56;;;;;;;1.70;0.90;;;;;;;18.33;54.26;99057.69;5013075;28;20203;-62
2022/01/09 08:46:21;;;;;;;2.90;0.80;;;;;;;18.31;54.74;99068.66;5028419;28;20173;-62
2022/01/09 08:48:48;;;;;;;5.57;1.00;;;;;;;18.31;54.22;99065.00;4993407;28;20176;-62
2022/01/09 08:51:14;;;;;;;2.47;1.30;;;;;;;18.31;54.69;99070.72;5028817;28;20532;-62
2022/01/09 08:53:41;;;;;;;1.93;1.00;;;;;;;18.28;54.79;99062.97;5010715;28;20506;-62
2022/01/09 08:56:06;;;;;;;1.50;0.73;;;;;;;18.27;54.54;99072.75;5031728;28;20195;-62
2022/01/09 08:58:32;;;;;;;3.97;1.30;;;;;;;18.23;54.59;99081.34;5028360;28;20466;-63
2022/01/09 09:00:58;;;;;;;1.50;0.63;;;;;;;18.27;54.67;99085.00;5007370;28;20278;-63
2022/01/09 09:03:23;;;;;;;2.00;0.80;;;;;;;18.26;54.55;99097.66;5008247;28;20568;-63
2022/01/09 09:05:49;;;;;;;2.97;1.10;;;;;;;18.31;54.47;99097.25;5010343;28;20200;-63
2022/01/09 09:08:14;;;;;;;2.13;0.80;;;;;;;18.28;54.80;99106.66;5027064;28;20206;-63
2022/01/09 09:10:40;;;;;;;2.03;0.90;;;;;;;18.34;54.43;99113.59;5014025;28;20185;-63
2022/01/09 09:13:05;;;;;;;2.07;0.90;;;;;;;18.31;54.27;99122.16;5009096;28;20200;-63
2022/01/09 09:15:31;;;;;;;1.67;0.90;;;;;;;18.28;54.40;99131.53;5008984;28;20192;-64
2022/01/09 09:17:56;;;;;;;2.90;0.83;;;;;;;18.26;54.44;99134.00;5015582;28;20200;-63
2022/01/09 09:20:22;;;;;;;2.03;0.97;;;;;;;18.26;54.75;99145.41;5028379;28;20236;-63
2022/01/09 09:22:47;;;;;;;1.63;0.77;;;;;;;18.22;54.63;99136.03;5028827;28;20180;-63
2022/01/09 09:25:13;;;;;;;2.50;0.90;;;;;;;18.27;54.72;99139.28;5028639;28;20183;-63
2022/01/09 09:27:38;;;;;;;1.70;0.77;;;;;;;18.31;54.26;99145.00;5028133;28;20755;-63
2022/01/09 09:30:05;;;;;;;1.97;0.80;;;;;;;18.22;54.90;99136.03;5028475;28;20160;-63
2022/01/09 09:32:43;;;;;;;3.00;1.37;;;;;;;18.28;54.91;99146.66;5020541;28;20177;-63
2022/01/09 09:35:09;;;;;;;2.17;1.00;;;;;;;18.23;54.68;99138.47;5008539;28;20500;-63
2022/01/09 09:37:34;;;;;;;2.37;0.90;;;;;;;18.28;54.72;99146.66;5020847;28;20462;-63
2022/01/09 09:40:00;;;;;;;1.83;0.70;;;;;;;18.31;54.71;99151.53;5028379;28;20423;-62
2022/01/09 09:42:25;;;;;;;2.33;1.00;;;;;;;18.24;54.64;99151.53;5027920;28;20254;-62
2022/01/09 09:44:51;;;;;;;3.83;1.00;;;;;;;18.28;54.41;99158.06;5027674;28;20169;-63
2022/01/09 09:47:18;;;;;;;5.10;1.00;;;;;;;18.28;54.78;99157.25;5026369;28;20177;-63
2022/01/09 09:49:43;;;;;;;2.07;0.73;;;;;;;18.28;54.60;99157.25;5028162;28;20195;-63
2022/01/09 09:52:09;;;;;;;1.63;0.67;;;;;;;18.29;54.57;99156.84;5028043;28;20411;-63
2022/01/09 09:54:34;;;;;;;1.50;0.80;;;;;;;18.29;54.77;99156.84;5028450;28;20173;-63
2022/01/09 09:56:59;;;;;;;2.90;1.10;;;;;;;18.33;54.25;99157.69;5027801;28;20177;-63
2022/01/09 09:59:25;;;;;;;1.80;0.70;;;;;;;18.36;54.14;99156.88;5031767;28;20227;-63
2022/01/09 10:01:51;;;;;;;1.80;0.80;;;;;;;18.31;54.42;99154.38;5047432;28;20187;-63
2022/01/09 10:04:16;;;;;;;2.47;0.83;;;;;;;18.30;54.48;99158.47;5030523;28;20176;-63
2022/01/09 10:06:46;;;;;;;2.37;1.03;;;;;;;18.31;54.38;99154.38;5050741;28;20237;-63
2022/01/09 10:09:16;;;;;;;1.83;0.83;;;;;;;18.27;54.59;99150.69;5051110;28;20171;-63
2022/01/09 10:11:50;;;;;;;2.30;0.90;;;;;;;18.29;54.57;99150.28;5051416;28;20400;-62
2022/01/09 10:14:29;;;;;;;1.83;0.73;;;;;;;18.32;54.47;99144.63;5051383;28;20426;-63
2022/01/09 10:17:16;;;;;;;2.37;0.93;;;;;;;18.39;54.21;99156.06;5050970;28;20481;-62
2022/01/09 10:20:08;;;;;;;3.17;0.83;;;;;;;18.34;54.23;99162.19;5029927;28;20435;-62
2022/01/09 10:22:40;;;;;;;2.13;0.70;;;;;;;18.34;54.01;99162.19;5031030;28;20506;-62
2022/01/09 10:25:27;;;;;;;1.53;0.70;;;;;;;18.39;54.24;99160.94;5031562;28;20933;-63
2022/01/09 10:28:10;;;;;;;3.80;1.00;;;;;;;18.34;54.12;99156.47;5013763;28;20853;-63
2022/01/09 10:30:38;;;;;;;3.17;1.07;;;;;;;18.22;53.59;99153.16;5044158;28;20831;-63
2022/01/09 10:33:09;;;;;;;1.80;0.90;;;;;;;18.16;53.55;99158.44;5017929;28;20850;-63
2022/01/09 10:35:34;;;;;;;9.00;0.97;;;;;;;18.16;53.11;99167.00;5033918;28;20781;-63
2022/01/09 10:38:37;;;;;;;2.17;0.80;;;;;;;18.15;52.95;99162.53;5046567;28;20945;-63
2022/01/09 10:41:03;;;;;;;2.93;0.80;;;;;;;18.12;52.92;99169.03;5008485;28;20192;-63
2022/01/09 10:43:39;;;;;;;2.90;0.90;;;;;;;18.17;52.46;99171.50;5032700;28;20833;-63
2022/01/09 10:46:05;;;;;;;5.20;1.20;;;;;;;18.15;52.63;99170.28;5014788;28;20223;-63
2022/01/09 10:48:41;;;;;;;2.67;0.83;;;;;;;18.12;52.61;99171.91;5032126;28;20411;-63
2022/01/09 10:51:10;;;;;;;3.30;1.17;;;;;;;18.16;51.95;99169.06;5014041;28;20198;-62
2022/01/09 10:53:45;;;;;;;3.93;1.20;;;;;;;18.15;51.80;99171.09;5012916;28;20818;-62
2022/01/09 10:56:21;;;;;;;3.00;1.10;;;;;;;18.13;52.04;99173.56;5030463;28;20458;-62
2022/01/09 10:58:50;;;;;;;2.53;1.07;;;;;;;18.12;52.01;99173.97;5013379;28;20443;-62
2022/01/09 11:01:16;;;;;;;10.67;1.43;;;;;;;18.13;51.61;99178.44;5030424;28;21044;-63
2022/01/09 11:03:44;;;;;;;6.40;1.10;;;;;;;18.11;51.71;99175.19;5030233;28;20446;-63
2022/01/09 11:06:10;;;;;;;5.87;1.43;;;;;;;18.11;52.12;99178.03;5031546;28;20893;-63
2022/01/09 11:08:36;;;;;;;2.90;1.17;;;;;;;18.14;51.76;99178.03;5050250;28;20425;-63
2022/01/09 11:11:01;;;;;;;5.87;1.40;;;;;;;18.12;51.83;99180.47;5050112;28;20580;-63
2022/01/09 11:13:27;;;;;;;6.33;1.43;;;;;;;18.18;51.70;99184.59;5050148;28;20445;-63
2022/01/09 11:18:36;;;;;;;7.03;1.50;;;;;;;18.20;51.43;99184.16;5049091;28;20203;-63
2022/01/09 11:21:01;;;;;;;8.57;1.13;;;;;;;18.21;51.49;99177.25;5000329;28;20435;-63
2022/01/09 11:23:33;;;;;;;6.27;1.40;;;;;;;18.18;51.26;99178.03;5030271;28;20181;-63
2022/01/09 11:25:59;;;;;;;8.87;1.50;;;;;;;18.16;51.25;99181.31;4996587;28;20215;-63
2022/01/09 11:28:25;;;;;;;8.70;1.33;;;;;;;18.17;51.37;99182.94;5012012;28;20415;-63
2022/01/09 11:30:56;;;;;;;4.10;1.20;;;;;;;18.19;51.31;99173.97;5012186;28;20176;-63
2022/01/09 11:33:34;;;;;;;3.73;0.90;;;;;;;18.18;51.25;99173.16;5033303;28;20430;-63